Jorge Blanco

Scout - Athletic Bilbao
23 Apr 2028
Sonntag
Verarbeitung

Persönlichkeit

Anpassungsfähigkeit (6) Ehrgeiz (1) Kontroverse (4) Loyalität (12) Druck (15) Professionalität (5) Fairness (10) Temperament (13)

Profil

Trainerstil Demokratisch
Lizenz Kontinentale B
Entschlossenheit 14
Menschenführung 6
Motivation 11
Disziplin 9
Arbeitszufriedenheit
100%
Ermüdung
0%
Rolle Scout
Gehalt 47.7K p/W
Vertrag 14.03.2029

Leistung

Verhalten Gut
Trainingseffektivität
59%
Spielerentwicklung
60%
Verletzungsprävention
35%
Taktische Umsetzung
75%

Letzte Ereignisse

Nahm an einer Scouting-Besprechung teil jetzt
Nahm an einer Scouting-Besprechung teil jetzt
Nahm an einer Scouting-Besprechung teil jetzt
Nahm an einer Scouting-Besprechung teil jetzt
Nahm an einer Scouting-Besprechung teil 7T her
Nahm an einer Scouting-Besprechung teil 7T her
Nahm an einer Scouting-Besprechung teil 7T her
Spiel beobachtet 7T her

Aktuell beobachtet

121
Spieler Verein Status Fähigkeit Vertrauen Beobachtet Zuletzt beobachtet Letzte Stimme
Aïssa Mandi Levante Bericht bereit 122 / 125 76% 1 10.01.2028 -
Kauã Moraes Flamengo Aktiv 123 / 129 40% 1 10.01.2028 -
Siyabonga Mabena Bidvest Wits Aktiv 131 / 128 40% 1 10.01.2028 -
Alex Verón Vélez Aktiv 107 / 121 40% 1 10.01.2028 -
Jeremías Merlo Gimnasia La Plata Aktiv 130 / 127 40% 1 31.12.2027 -
Tomás Parmo Independiente Aktiv 123 / 134 40% 1 31.12.2027 -
Matias Siltanen Malmo FF Aktiv 127 / 132 40% 1 31.12.2027 -
Assane Diao Como Aktiv 144 / 152 40% 12 22.06.2027 -
Mateus Mané Burnley Aktiv 134 / 141 40% 6 22.06.2027 -
Nikolaus Wurmbrand Girona Aktiv 123 / 125 40% 1 22.06.2027 -
Nestory Irankunda Watford Aktiv 123 / 121 40% 1 15.06.2027 -
Fermín Barcelona Aktiv 159 / 158 72% 1 01.06.2027 -
Jorrel Hato Chelsea Aktiv 148 / 158 40% 7 31.05.2027 -
Toni Tamarit Alverca Aktiv 121 / 121 40% 6 31.05.2027 -
Bazoumana Touré Newcastle United Aktiv 137 / 147 40% 2 31.05.2027 -
Jesús Rodríguez Como Aktiv 144 / 143 40% 1 30.05.2027 -
Samuel Lucero Defensa y Justicia Aktiv 112 / 117 40% 1 28.05.2027 -
Sascha Britschgi AC Milan Aktiv 121 / 131 40% 1 28.05.2027 -
Sindre Walle Egeli Udinese Aktiv 131 / 132 40% 6 26.05.2027 -
Yusi Alavés Aktiv 127 / 135 40% 5 26.05.2027 -
Ollie Scarles West Ham United Aktiv 136 / 130 40% 8 24.05.2027 -
Victor Hernandez Santa Fe Aktiv 120 / 127 40% 1 24.05.2027 -
Eliás Montiel Borussia Dortmund Aktiv 126 / 134 40% 2 21.05.2027 -
Eduardo Lozano Botafogo Aktiv 149 / 154 40% 7 20.05.2027 -
Sam Amo-Ameyaw RC Strasbourg Aktiv 129 / 132 40% 3 18.05.2027 -
Senny Mayulu Paris Saint-Germain Aktiv 139 / 151 40% 5 18.05.2027 -
Sayed Abu Farchi Maccabi Tel Aviv Aktiv 127 / 131 40% 2 17.05.2027 -
Finn Jeltsch VfB Stuttgart Aktiv 130 / 136 40% 1 17.05.2027 -
Edmund Baidoo St. Gallen Aktiv 123 / 124 40% 1 17.05.2027 -
Jones El-Abdellaoui Celta Aktiv 122 / 134 40% 4 16.05.2027 -
Sidiki Chérif Newcastle United Aktiv 122 / 137 40% 2 16.05.2027 -
Josh King Newcastle United Aktiv 133 / 146 40% 1 15.05.2027 -
William Gomes Porto Aktiv 143 / 146 40% 6 12.05.2027 -
Luís Guilherme Sporting CP Aktiv 129 / 133 40% 2 12.05.2027 -
Romelle Donovan Brentford Aktiv 119 / 131 40% 1 12.05.2027 -
Cheveyo Tsawa Club Brugge Aktiv 122 / 124 40% 1 11.05.2027 -
Samir El Mourabet RC Strasbourg Aktiv 127 / 132 40% 1 11.05.2027 -
Ethan Williams Peterborough United Aktiv 115 / 118 40% 5 08.05.2027 -
Mohamadou Kanté Crawley Town Aktiv 118 / 127 40% 4 05.05.2027 -
Oscar Schwartau Norwich City Aktiv 118 / 125 40% 1 05.05.2027 -
Matvii Ponomarenko Dynamo Kyiv Aktiv 122 / 121 40% 1 03.05.2027 -
Kirill Glebov CSKA Moscow Aktiv 122 / 134 40% 4 02.05.2027 -
Caleb Yirenkyi Coventry City Aktiv 132 / 140 40% 1 01.05.2027 -
Jonathan Asp-Jensen Deportivo La Coruña Aktiv 126 / 132 40% 1 30.04.2027 -
Lucas Høgsberg RC Strasbourg Aktiv 134 / 138 40% 1 30.04.2027 -
Othmane Maamma Watford Aktiv 125 / 124 40% 1 28.04.2027 -
Yussif Saidu Zaragoza Aktiv 117 / 121 40% 1 27.04.2027 -
Agustín Ruberto River Plate Aktiv 127 / 130 40% 2 23.04.2027 -
Mikel Gogorza Brondby Aktiv 130 / 132 40% 3 23.04.2027 -
Ryan Oné Sheffield United Aktiv 106 / 115 40% 1 23.04.2027 -
James Bacca La Equidad Aktiv 120 / 138 40% 1 21.04.2027 -
Chemsdine Talbi Sunderland Aktiv 146 / 143 40% 5 20.04.2027 -
Kenan Yıldız Juventus Aktiv 162 / 164 40% 6 18.04.2027 Beobachten
Amaury Morales Leon Aktiv 114 / 122 40% 2 18.04.2027 -
Leo Castledine Middlesbrough Aktiv 131 / 127 40% 4 16.04.2027 -
Mathys Tel Tottenham Aktiv 147 / 145 40% 5 16.04.2027 -
Carlos Espí Real Madrid Aktiv 127 / 131 40% 2 12.04.2027 -
Salvador Blopá Sporting CP Aktiv 121 / 122 40% 2 10.04.2027 -
David Mella Deportivo La Coruña Aktiv 124 / 136 40% 1 10.04.2027 -
Louis Leroux FC Nantes Aktiv 132 / 127 40% 1 09.04.2027 -
Kobbie Mainoo Manchester United Aktiv 145 / 153 40% 1 05.04.2027 -
Joel Orlando Almagro Aktiv 121 / 113 40% 1 04.04.2027 -
Will Lankshear Middlesbrough Aktiv 123 / 121 40% 1 04.04.2027 -
Gianluca Prestianni Benfica Aktiv 134 / 133 40% 3 29.03.2027 -
Antoni Milambo Brentford Aktiv 142 / 144 40% 1 27.03.2027 -
Jeff Ekhator Juventus Aktiv 135 / 130 40% 3 26.03.2027 -
Jonás Luna Wanderers Aktiv 120 / 130 40% 2 23.03.2027 -
Rocco Vata Watford Aktiv 115 / 121 40% 3 22.03.2027 -
Lovro Zvonarek Estrela da Amadora Aktiv 128 / 125 40% 1 22.03.2027 -
Jan Virgili Club Brugge Aktiv 128 / 139 40% 1 06.03.2027 -
Nico O'Reilly Manchester City Aktiv 159 / 161 40% 1 04.03.2027 -
Xavier Biscayzacú Defensor Sporting Aktiv 125 / 129 40% 1 01.03.2027 -
Boubacar Kamara Aston Villa Aktiv 167 / 169 40% 6 28.12.2026 -
Amadou Onana Aston Villa Aktiv 150 / 160 40% 5 28.12.2026 -
Eduardo Camavinga Real Madrid Aktiv 171 / 160 40% 4 28.12.2026 -
Johnny Cardoso Atlético Madrid Aktiv 149 / 151 40% 8 27.12.2026 -
Ilaix Moriba Celta Aktiv 154 / 147 40% 5 27.12.2026 -
Moisés Caicedo Chelsea Aktiv 164 / 174 40% 6 26.12.2026 -
João Neves Paris Saint-Germain Aktiv 172 / 171 40% 3 26.12.2026 -
Gavi Barcelona Aktiv 150 / 160 40% 5 25.12.2026 -
Tyler Adams Bournemouth Aktiv 154 / 148 40% 3 25.12.2026 -
Carlos Romero Villarreal Aktiv 144 / 150 40% 4 25.12.2026 -
Willian Pacho Paris Saint-Germain Aktiv 164 / 159 40% 1 23.12.2026 Mehr Infos nötig
Adam Wharton Crystal Palace Aktiv 151 / 149 40% 3 17.12.2026 -
Pablo Barrios Atlético Madrid Aktiv 159 / 153 40% 1 17.12.2026 -
Alexis Mac Allister Liverpool Aktiv 156 / 161 40% 6 14.12.2026 -
Tino Livramento Newcastle United Aktiv 156 / 153 40% 3 14.12.2026 -
Pape Guèye Villarreal Aktiv 157 / 155 40% 2 14.12.2026 -
Pedri Barcelona Aktiv 180 / 179 40% 6 12.12.2026 -
Cristian Uribe Monaco Aktiv 153 / 146 40% 6 08.12.2026 -
Ryan Gravenberch Liverpool Aktiv 159 / 161 40% 4 06.12.2026 -
Dominik Szoboszlai Liverpool Aktiv 169 / 159 40% 4 05.12.2026 -
Quinten Timber Crystal Palace Aktiv 150 / 144 40% 1 04.12.2026 -
James Garner Everton Aktiv 148 / 145 40% 2 29.11.2026 -
Vitinha Paris Saint-Germain Aktiv 175 / 183 40% 2 29.11.2026 -
Elliot Anderson Manchester City Aktiv 149 / 158 40% 2 27.11.2026 -
Joško Gvardiol Manchester City Aktiv 159 / 158 40% 1 27.11.2026 Mehr Infos nötig
Alex Scott Bournemouth Aktiv 153 / 152 40% 2 19.11.2026 -
Mats Wieffer Brighton Aktiv 148 / 150 40% 2 13.11.2026 -
William Saliba Arsenal Aktiv 173 / 169 40% 4 11.11.2026 -
Sergi Cardona KAA Gent Aktiv 145 / 150 40% 1 03.11.2026 -
Aurélien Tchouaméni Real Madrid Aktiv 173 / 173 40% 5 29.10.2026 Beobachten
Jarrad Branthwaite Everton Aktiv 153 / 153 40% 2 28.10.2026 -
Miloš Kerkez Liverpool Aktiv 147 / 154 40% 1 26.10.2026 -
Adrien Truffert Bournemouth Aktiv 143 / 152 40% 1 26.10.2026 -
Maxence Lacroix Chelsea Aktiv 143 / 151 40% 2 15.10.2026 -
Ousmane Diomande Nottingham Forest Aktiv 146 / 151 40% 1 15.10.2026 -
Achraf Hakimi Paris Saint-Germain Aktiv 181 / 182 40% 1 11.10.2026 -
Wesley Fofana Chelsea Aktiv 159 / 164 40% 3 09.10.2026 -
Jules Koundé Barcelona Aktiv 161 / 154 40% 1 09.10.2026 -
Eric García Barcelona Aktiv 165 / 153 40% 4 04.10.2026 -
Sven Botman Newcastle United Aktiv 163 / 157 40% 1 03.10.2026 -
Micky van de Ven Tottenham Aktiv 152 / 155 40% 1 01.10.2026 -
Trent Alexander-Arnold Real Madrid Aktiv 154 / 159 40% 1 29.09.2026 -
Florian Wirtz Liverpool Aktiv 167 / 165 40% 1 21.09.2026 -
Óscar Mingueza Crystal Palace Aktiv 142 / 144 40% 1 17.09.2026 -
Ibrahima Konaté Real Madrid Aktiv 158 / 164 40% 1 16.09.2026 -
Julián Álvarez Atlético Madrid Aktiv 177 / 168 40% 1 14.09.2026 -
Matthijs de Ligt Manchester United Aktiv 161 / 154 40% 1 11.09.2026 -
Enzo Fernández Manchester City Aktiv 166 / 168 40% 1 09.09.2026 -
Ilyas Ansah Hull City Aktiv 133 / 128 40% 1 17.08.2026 -